Time;durP1;ratioP1;P1;durP2;ratioP2;P2;SDS_P1;SDS_P2;PMS_P1;PMS_P2;Temp;Humidity;BMP_temperature;BMP_pressure;BME280_temperature;BME280_humidity;BME280_pressure;Samples;Min_cycle;Max_cycle;Signal;HPM_P1;HPM_P2
2024/01/26 00:00:24;;;;;;;25.08;7.13;;;12.20;99.90;;;11.56;100.00;102459.13;4208408;28;20438;-73
2024/01/26 00:02:25;;;;;;;30.48;7.63;;;12.10;99.90;;;11.58;100.00;102455.44;4201801;28;20036;-73
2024/01/26 00:04:26;;;;;;;32.40;8.35;;;12.10;99.90;;;11.59;100.00;102458.88;4216911;28;20024;-73
2024/01/26 00:06:27;;;;;;;34.95;9.25;;;12.10;99.90;;;11.57;100.00;102452.88;4204612;28;20032;-73
2024/01/26 00:08:28;;;;;;;35.38;8.02;;;12.10;99.90;;;11.56;100.00;102452.03;4221754;28;20035;-73
2024/01/26 00:10:29;;;;;;;28.33;7.32;;;12.10;99.90;;;11.60;100.00;102442.06;4203935;28;20024;-73
2024/01/26 00:12:31;;;;;;;32.67;7.38;;;12.10;99.90;;;11.58;100.00;102439.56;4213784;28;20024;-73
2024/01/26 00:14:32;;;;;;;34.70;6.85;;;12.10;99.90;;;11.60;100.00;102434.16;4220750;28;20028;-73
2024/01/26 00:16:32;;;;;;;31.17;8.35;;;12.10;99.90;;;11.63;100.00;102445.31;4204939;28;20024;-72
2024/01/26 00:18:34;;;;;;;37.88;7.78;;;12.10;99.90;;;11.60;100.00;102445.56;4216801;28;20041;-72
2024/01/26 00:20:35;;;;;;;35.28;8.18;;;12.10;99.90;;;11.61;100.00;102444.63;4204692;28;20024;-72
2024/01/26 00:22:36;;;;;;;27.27;7.65;;;12.10;99.90;;;11.64;100.00;102443.53;4204811;28;20028;-73
2024/01/26 00:24:36;;;;;;;42.75;8.93;;;12.10;99.90;;;11.59;100.00;102441.22;4204767;28;20407;-73
2024/01/26 00:26:37;;;;;;;36.67;6.72;;;12.10;99.90;;;11.61;100.00;102435.84;4204798;28;20032;-73
2024/01/26 00:28:38;;;;;;;26.75;9.15;;;12.20;99.90;;;11.61;100.00;102426.09;4223918;28;20028;-73
2024/01/26 00:30:39;;;;;;;25.17;7.53;;;12.10;99.90;;;11.64;100.00;102414.44;4204711;28;20043;-73
2024/01/26 00:32:40;;;;;;;32.83;7.88;;;12.20;99.90;;;11.65;100.00;102416.94;4204643;28;20399;-73
2024/01/26 00:34:41;;;;;;;25.95;7.03;;;12.20;99.90;;;11.65;100.00;102416.09;4204489;28;20033;-73
2024/01/26 00:36:44;;;;;;;24.80;6.55;;;12.20;99.90;;;11.68;100.00;102426.44;4204780;28;20032;-73
2024/01/26 00:38:45;;;;;;;34.47;7.30;;;12.20;99.90;;;11.69;100.00;102425.47;4229407;28;20510;-73
2024/01/26 00:40:46;;;;;;;16.60;5.63;;;12.20;99.90;;;11.69;100.00;102420.19;4210020;28;20613;-73
2024/01/26 00:42:48;;;;;;;24.10;5.35;;;12.20;99.90;;;11.65;100.00;102394.97;4204392;28;20028;-73
2024/01/26 00:44:49;;;;;;;33.67;8.40;;;12.20;99.90;;;11.66;100.00;102389.56;4220552;28;20027;-72
2024/01/26 00:46:49;;;;;;;31.33;6.70;;;12.20;99.90;;;11.71;100.00;102394.50;4212554;28;20044;-73
2024/01/26 00:48:50;;;;;;;26.20;6.75;;;12.20;99.90;;;11.74;100.00;102401.38;4231763;28;20024;-73
2024/01/26 00:50:54;;;;;;;36.45;8.07;;;12.20;99.90;;;11.73;100.00;102400.53;4207871;28;20040;-73
2024/01/26 00:52:55;;;;;;;24.42;6.50;;;12.20;99.90;;;11.73;100.00;102408.47;4219846;28;20036;-73
2024/01/26 00:54:56;;;;;;;27.05;6.18;;;12.30;99.90;;;11.70;100.00;102406.06;4219882;28;20043;-73
2024/01/26 00:56:57;;;;;;;23.27;5.70;;;12.30;99.90;;;11.73;100.00;102405.81;4203123;28;20082;-73
2024/01/26 00:58:59;;;;;;;24.95;5.55;;;12.30;99.90;;;11.75;100.00;102409.16;4224319;28;20028;-72
2024/01/26 01:00:59;;;;;;;25.30;5.18;;;12.30;99.90;;;11.73;100.00;102403.16;4204340;28;20046;-73
2024/01/26 01:03:00;;;;;;;23.83;7.43;;;12.20;99.90;;;11.75;100.00;102403.88;4219873;28;20403;-73
2024/01/26 01:05:02;;;;;;;25.52;6.10;;;12.30;99.90;;;11.73;100.00;102397.88;4204020;28;20074;-73
2024/01/26 01:07:03;;;;;;;25.35;6.72;;;12.20;99.90;;;11.75;100.00;102405.69;4219678;28;20056;-73
2024/01/26 01:09:05;;;;;;;22.35;6.15;;;12.20;99.90;;;11.74;100.00;102396.09;4220280;28;20107;-73
2024/01/26 01:11:06;;;;;;;25.63;6.70;;;12.20;99.90;;;11.74;100.00;102404.84;4202854;28;20055;-73
2024/01/26 01:13:10;;;;;;;42.05;7.70;;;12.30;99.90;;;11.76;100.00;102392.34;4219704;28;20024;-73
2024/01/26 01:15:11;;;;;;;26.92;6.03;;;12.30;99.90;;;11.75;100.00;102393.31;4204096;28;20033;-73
2024/01/26 01:17:12;;;;;;;26.92;6.50;;;12.30;99.90;;;11.79;100.00;102396.56;4224223;28;20060;-73
2024/01/26 01:19:13;;;;;;;26.52;6.63;;;12.30;99.90;;;11.77;100.00;102399.31;4214912;28;20028;-72
2024/01/26 01:21:15;;;;;;;27.15;7.28;;;12.30;99.90;;;11.77;100.00;102407.22;4229469;28;20055;-73
2024/01/26 01:23:16;;;;;;;30.42;6.57;;;12.30;99.90;;;11.76;100.00;102412.66;4208300;27;20040;-73
2024/01/26 01:25:17;;;;;;;25.13;5.68;;;12.30;99.90;;;11.77;100.00;102417.81;4203997;28;20024;-73
2024/01/26 01:27:18;;;;;;;23.20;5.45;;;12.30;99.90;;;11.76;100.00;102405.56;4219488;28;20457;-73
2024/01/26 01:29:18;;;;;;;21.80;5.47;;;12.30;99.90;;;11.77;100.00;102394.00;4209859;28;20025;-73
2024/01/26 01:31:19;;;;;;;22.30;7.00;;;12.30;99.90;;;11.78;100.00;102385.13;4203710;28;20032;-73
2024/01/26 01:33:21;;;;;;;22.13;5.10;;;12.30;99.90;;;11.79;100.00;102392.09;4203882;28;20060;-73
2024/01/26 01:35:22;;;;;;;25.55;7.03;;;12.30;99.90;;;11.80;100.00;102395.59;4203472;28;20085;-73
2024/01/26 01:37:23;;;;;;;29.02;6.90;;;12.30;99.90;;;11.78;100.00;102387.78;4203632;28;20036;-73
2024/01/26 01:39:24;;;;;;;26.40;6.57;;;12.30;99.90;;;11.81;100.00;102402.53;4215252;28;20016;-73
2024/01/26 01:41:25;;;;;;;31.27;5.93;;;12.30;99.90;;;11.82;100.00;102393.66;4220494;28;20035;-73
2024/01/26 01:43:25;;;;;;;27.50;6.18;;;12.30;99.90;;;11.82;100.00;102388.38;4202366;28;20031;-73
2024/01/26 01:45:26;;;;;;;21.90;5.78;;;12.30;99.90;;;11.82;100.00;102391.84;4220784;28;20027;-73
2024/01/26 01:47:28;;;;;;;20.55;5.47;;;12.30;99.90;;;11.83;100.00;102380.28;4206755;28;20040;-73
2024/01/26 01:49:29;;;;;;;27.55;6.55;;;12.30;99.90;;;11.84;100.00;102371.41;4226677;28;20020;-73
2024/01/26 01:51:35;;;;;;;27.50;6.22;;;12.30;99.90;;;11.85;100.00;102365.16;4219103;28;20099;-73
2024/01/26 01:53:37;;;;;;;21.45;5.55;;;12.40;99.90;;;11.83;100.00;102358.31;4203586;28;20387;-73
2024/01/26 01:55:40;;;;;;;20.63;5.90;;;12.40;99.90;;;11.84;100.00;102370.56;4218854;28;20024;-73
2024/01/26 01:57:44;;;;;;;15.35;5.03;;;12.40;99.90;;;11.84;100.00;102376.69;4218653;28;20024;-72
2024/01/26 01:59:45;;;;;;;23.27;5.30;;;12.30;99.90;;;11.86;100.00;102369.47;4220036;28;20470;-73
2024/01/26 02:01:46;;;;;;;20.40;5.00;;;12.40;99.90;;;11.85;100.00;102373.09;4218924;28;20031;-73
2024/01/26 02:03:47;;;;;;;28.98;6.90;;;12.40;99.90;;;11.88;100.00;102366.72;4202933;28;20021;-73
2024/01/26 02:05:48;;;;;;;16.27;5.70;;;12.40;99.90;;;11.85;100.00;102361.69;4218940;28;20046;-72
2024/01/26 02:07:51;;;;;;;26.88;5.90;;;12.40;99.90;;;11.88;100.00;102362.28;4205023;28;20032;-73
2024/01/26 02:09:52;;;;;;;26.95;5.57;;;12.40;99.90;;;11.89;100.00;102360.44;4207585;28;20040;-73
2024/01/26 02:11:53;;;;;;;28.45;5.80;;;12.40;99.90;;;11.89;100.00;102363.94;4217630;28;20028;-73
2024/01/26 02:13:53;;;;;;;23.48;6.47;;;12.40;99.90;;;11.90;100.00;102355.06;4222207;28;20028;-73
2024/01/26 02:15:54;;;;;;;21.48;6.10;;;12.40;99.90;;;11.92;100.00;102357.56;4203102;28;20032;-73
2024/01/26 02:17:55;;;;;;;26.67;6.43;;;12.40;99.90;;;11.85;100.00;102359.88;4206312;28;20028;-73
2024/01/26 02:19:56;;;;;;;25.52;5.88;;;12.40;99.90;;;11.91;100.00;102367.31;4206990;28;20021;-73
2024/01/26 02:21:57;;;;;;;26.42;6.60;;;12.40;99.90;;;11.91;100.00;102359.38;4203044;28;20491;-73
2024/01/26 02:23:58;;;;;;;30.08;6.60;;;12.40;99.90;;;11.90;100.00;102365.63;4218537;28;20019;-73
2024/01/26 02:25:59;;;;;;;26.40;6.22;;;12.40;99.90;;;11.91;100.00;102366.47;4203036;28;20017;-73
2024/01/26 02:28:00;;;;;;;24.70;6.15;;;12.40;99.90;;;11.92;100.00;102358.41;4206521;28;20373;-73
2024/01/26 02:30:01;;;;;;;27.85;5.93;;;12.40;99.90;;;11.92;100.00;102363.69;4202899;28;20029;-73
2024/01/26 02:32:02;;;;;;;21.88;5.82;;;12.40;99.90;;;11.93;100.00;102357.44;4202828;28;20059;-73
2024/01/26 02:34:03;;;;;;;22.63;5.80;;;12.40;99.90;;;11.94;100.00;102367.06;4202633;28;20032;-73
2024/01/26 02:36:04;;;;;;;36.20;6.78;;;12.40;99.90;;;11.97;100.00;102372.09;4202899;28;20052;-73
2024/01/26 02:38:05;;;;;;;20.98;5.60;;;12.50;99.90;;;11.96;100.00;102365.13;4208315;28;20518;-73
2024/01/26 02:40:08;;;;;;;16.75;5.13;;;12.50;99.90;;;11.95;100.00;102363.44;4224213;28;20021;-73
2024/01/26 02:42:09;;;;;;;28.25;7.00;;;12.50;99.90;;;11.97;100.00;102358.88;4202753;28;20021;-72
2024/01/26 02:44:10;;;;;;;24.48;7.70;;;12.50;99.90;;;11.99;100.00;102362.22;4218269;28;20020;-73
2024/01/26 02:46:11;;;;;;;25.90;6.28;;;12.50;99.90;;;11.98;100.00;102364.97;4212138;28;20037;-72
2024/01/26 02:48:13;;;;;;;32.05;8.48;;;12.40;99.90;;;11.91;100.00;102355.88;4209469;28;20099;-73
2024/01/26 02:50:14;;;;;;;24.77;5.95;;;12.40;99.90;;;11.91;100.00;102356.75;4216315;28;20074;-73
2024/01/26 02:52:15;;;;;;;27.63;6.72;;;12.40;99.90;;;11.87;100.00;102355.31;4202403;28;20028;-72
2024/01/26 02:54:16;;;;;;;28.75;7.20;;;12.40;99.90;;;11.86;100.00;102363.34;4202481;28;20029;-72
2024/01/26 02:56:17;;;;;;;22.35;7.15;;;12.40;99.90;;;11.89;100.00;102368.38;4202545;28;20036;-72
2024/01/26 02:58:18;;;;;;;22.33;7.13;;;12.30;99.90;;;11.85;100.00;102361.69;4210538;28;20030;-73
2024/01/26 03:00:19;;;;;;;24.77;6.97;;;12.30;99.90;;;11.81;100.00;102360.25;4212473;28;20020;-73
2024/01/26 03:02:20;;;;;;;31.50;6.50;;;12.30;99.90;;;11.80;100.00;102354.09;4202203;28;20054;-73
2024/01/26 03:04:21;;;;;;;22.77;5.53;;;12.30;99.90;;;11.79;100.00;102357.72;4202201;28;20490;-73
2024/01/26 03:06:22;;;;;;;22.42;6.20;;;12.30;99.90;;;11.79;100.00;102363.03;4202332;28;20025;-73
2024/01/26 03:08:22;;;;;;;19.52;5.80;;;12.30;99.90;;;11.77;100.00;102356.19;4222432;28;20024;-73
2024/01/26 03:10:23;;;;;;;18.27;6.13;;;12.30;99.90;;;11.76;100.00;102360.63;4204010;28;20032;-73
2024/01/26 03:12:24;;;;;;;22.50;7.22;;;12.20;99.90;;;11.75;100.00;102356.28;4202304;28;20032;-73
2024/01/26 03:14:25;;;;;;;23.80;5.60;;;12.30;99.90;;;11.76;100.00;102357.13;4217913;28;20034;-73
2024/01/26 03:16:26;;;;;;;28.13;7.65;;;12.30;99.90;;;11.78;100.00;102350.75;4208636;28;20073;-73
2024/01/26 03:18:26;;;;;;;18.48;5.82;;;12.30;99.90;;;11.75;100.00;102343.06;4200773;28;20086;-73
2024/01/26 03:20:27;;;;;;;21.88;7.47;;;12.20;99.90;;;11.75;100.00;102350.16;4206536;28;20085;-73
2024/01/26 03:22:28;;;;;;;17.67;5.68;;;12.20;99.90;;;11.79;100.00;102346.31;4218824;28;20016;-73
2024/01/26 03:24:29;;;;;;;17.85;6.65;;;12.20;99.90;;;11.74;100.00;102349.31;4217621;28;20027;-73
2024/01/26 03:26:30;;;;;;;21.88;6.38;;;12.30;99.90;;;11.73;100.00;102347.66;4218697;28;20028;-73
2024/01/26 03:28:31;;;;;;;21.85;6.03;;;12.30;99.90;;;11.77;100.00;102335.03;4216609;28;20086;-73
2024/01/26 03:30:35;;;;;;;28.42;7.13;;;12.30;99.90;;;11.77;100.00;102346.41;4202027;28;20028;-73
2024/01/26 03:32:36;;;;;;;19.73;5.75;;;12.30;99.90;;;11.77;100.00;102350.91;4202168;28;20031;-73
2024/01/26 03:34:36;;;;;;;23.85;7.53;;;12.30;99.90;;;11.76;100.00;102363.28;4201696;28;20039;-73
2024/01/26 03:36:37;;;;;;;19.50;6.10;;;12.30;99.90;;;11.78;100.00;102377.19;4202017;28;20029;-72
2024/01/26 03:38:38;;;;;;;21.17;6.10;;;12.30;99.90;;;11.81;100.00;102355.78;4215411;28;20035;-73
2024/01/26 03:40:39;;;;;;;22.90;6.70;;;12.30;99.90;;;11.79;100.00;102363.03;4213867;28;20042;-72
2024/01/26 03:42:41;;;;;;;26.73;7.68;;;12.30;99.90;;;11.81;100.00;102358.44;4201882;28;20033;-72
2024/01/26 03:44:42;;;;;;;27.05;7.50;;;12.30;99.90;;;11.80;100.00;102356.75;4202188;28;20028;-72
2024/01/26 03:46:43;;;;;;;17.70;6.32;;;12.20;99.90;;;11.80;100.00;102356.75;4211441;28;20044;-72
2024/01/26 03:48:44;;;;;;;21.65;7.28;;;12.30;99.90;;;11.79;100.00;102349.81;4219405;28;20028;-72
2024/01/26 03:50:45;;;;;;;26.65;7.80;;;12.30;99.90;;;11.83;100.00;102356.50;4201658;28;20036;-72
2024/01/26 03:52:46;;;;;;;31.27;6.80;;;12.30;99.90;;;11.83;100.00;102350.38;4201790;28;20509;-72
2024/01/26 03:54:46;;;;;;;29.30;7.50;;;12.30;99.90;;;11.82;100.00;102352.19;4200492;28;20439;-72
2024/01/26 03:56:47;;;;;;;34.08;7.60;;;12.30;99.90;;;11.83;100.00;102350.38;4201743;28;20078;-72
2024/01/26 03:58:48;;;;;;;24.17;7.25;;;12.30;99.90;;;11.86;100.00;102363.34;4224601;28;20023;-72
2024/01/26 04:00:49;;;;;;;25.38;7.07;;;12.30;99.90;;;11.88;100.00;102358.78;4202208;28;20021;-73
2024/01/26 04:02:50;;;;;;;29.85;8.10;;;12.30;99.90;;;11.84;100.00;102360.84;4201763;28;20029;-72
2024/01/26 04:04:51;;;;;;;19.48;7.72;;;12.30;99.90;;;11.86;100.00;102350.97;4217087;28;20378;-72
2024/01/26 04:06:52;;;;;;;22.65;7.47;;;12.30;99.90;;;11.86;100.00;102352.75;4201673;28;20399;-72
2024/01/26 04:08:55;;;;;;;26.60;7.30;;;12.40;99.90;;;11.89;100.00;102345.44;4222630;28;20102;-72
2024/01/26 04:10:55;;;;;;;27.05;7.35;;;12.40;99.90;;;11.93;100.00;102344.22;4221070;28;20025;-72
2024/01/26 04:12:57;;;;;;;25.67;7.97;;;12.40;99.90;;;11.96;100.00;102346.63;4217195;28;20035;-72
2024/01/26 04:14:58;;;;;;;22.88;7.65;;;12.40;99.90;;;11.97;100.00;102344.81;4200353;28;20086;-72
2024/01/26 04:16:58;;;;;;;24.90;7.78;;;12.40;99.90;;;11.96;100.00;102343.97;4201453;28;20408;-72
2024/01/26 04:18:59;;;;;;;28.13;9.10;;;12.50;99.90;;;11.98;100.00;102342.03;4207702;28;20025;-72
2024/01/26 04:21:00;;;;;;;34.65;10.02;;;12.50;99.90;;;12.04;100.00;102351.25;4217137;28;20024;-72
2024/01/26 04:23:01;;;;;;;29.00;8.90;;;12.50;99.90;;;12.04;100.00;102354.75;4201523;28;20029;-72
2024/01/26 04:25:02;;;;;;;33.40;9.57;;;12.50;99.90;;;12.07;100.00;102362.44;4201461;28;20146;-72
2024/01/26 04:27:03;;;;;;;31.48;10.13;;;12.50;99.90;;;12.10;100.00;102356.03;4217107;28;20024;-72
2024/01/26 04:29:04;;;;;;;30.08;9.20;;;12.60;99.90;;;12.15;100.00;102364.47;4217636;28;20051;-72
2024/01/26 04:31:05;;;;;;;39.78;9.65;;;12.60;99.90;;;12.12;100.00;102360.28;4201432;28;20035;-72
2024/01/26 04:33:06;;;;;;;33.15;8.48;;;12.60;99.90;;;12.11;100.00;102363.88;4201352;28;20036;-73
2024/01/26 04:35:08;;;;;;;25.73;8.68;;;12.60;99.90;;;12.11;100.00;102363.88;4201270;28;20535;-73
2024/01/26 04:37:08;;;;;;;25.73;7.45;;;12.60;99.90;;;12.13;100.00;102369.03;4217048;28;20449;-73
2024/01/26 04:39:11;;;;;;;24.70;7.78;;;12.60;99.90;;;12.12;100.00;102364.72;4222617;28;20023;-72
2024/01/26 04:41:12;;;;;;;28.92;8.45;;;12.60;99.90;;;12.14;100.00;102376.84;4204215;28;20017;-73
2024/01/26 04:43:13;;;;;;;31.02;7.00;;;12.60;99.90;;;12.14;100.00;102368.06;4201476;28;20384;-73
2024/01/26 04:45:14;;;;;;;19.83;7.43;;;12.60;99.90;;;12.13;100.00;102375.16;4205571;28;20020;-73
2024/01/26 04:47:16;;;;;;;22.27;6.10;;;12.60;99.90;;;12.16;100.00;102368.75;4206483;28;20486;-73
2024/01/26 04:49:17;;;;;;;23.27;5.70;;;12.60;99.90;;;12.14;100.00;102365.41;4219522;28;20551;-73
2024/01/26 04:51:18;;;;;;;16.17;5.32;;;12.60;99.90;;;12.12;100.00;102378.78;4202200;28;20032;-73
2024/01/26 04:53:19;;;;;;;20.77;6.03;;;12.60;99.90;;;12.14;100.00;102384.78;4220048;28;20458;-72
2024/01/26 04:55:24;;;;;;;16.75;5.38;;;12.60;99.90;;;12.11;100.00;102378.91;4214469;28;20032;-72
2024/01/26 04:57:25;;;;;;;21.80;6.57;;;12.60;99.90;;;12.13;100.00;102379.59;4205819;28;20028;-72
2024/01/26 04:59:26;;;;;;;12.18;4.32;;;12.60;99.90;;;12.11;100.00;102374.44;4218246;28;20403;-72
2024/01/26 05:01:27;;;;;;;9.15;4.13;;;12.60;99.90;;;12.16;100.00;102382.84;4204005;28;20020;-72
2024/01/26 05:03:28;;;;;;;11.20;4.18;;;12.60;99.90;;;12.11;100.00;102376.25;4203933;28;20408;-72
2024/01/26 05:05:29;;;;;;;14.10;4.20;;;12.60;99.90;;;12.11;100.00;102379.75;4204032;28;20392;-72
2024/01/26 05:07:30;;;;;;;14.25;4.40;;;12.60;99.90;;;12.07;100.00;102370.38;4204223;28;20385;-72
2024/01/26 05:09:30;;;;;;;7.70;3.50;;;12.60;99.90;;;12.07;100.00;102377.47;4213290;28;20053;-72
2024/01/26 05:11:31;;;;;;;10.88;4.05;;;12.60;99.90;;;12.06;100.00;102384.59;4219675;28;20024;-72
2024/01/26 05:13:32;;;;;;;11.40;3.25;;;12.60;99.90;;;12.10;100.00;102387.78;4203953;28;20516;-73
2024/01/26 05:15:33;;;;;;;13.32;4.10;;;12.60;99.90;;;12.10;100.00;102379.84;4204424;28;20032;-72
2024/01/26 05:17:34;;;;;;;11.88;3.83;;;12.60;99.90;;;12.08;100.00;102372.06;4216040;28;20029;-73
2024/01/26 05:19:35;;;;;;;9.10;3.05;;;12.60;99.90;;;12.09;100.00;102373.75;4207990;28;20063;-73
2024/01/26 05:21:35;;;;;;;7.50;3.10;;;12.60;99.90;;;12.15;100.00;102382.97;4203918;28;20025;-73
2024/01/26 05:23:36;;;;;;;9.45;3.00;;;12.60;99.90;;;12.14;100.00;102376.00;4202545;28;20033;-72
2024/01/26 05:25:37;;;;;;;5.80;2.60;;;12.60;99.90;;;12.16;100.00;102380.19;4203911;28;20028;-72
2024/01/26 05:27:40;;;;;;;6.32;2.40;;;12.60;99.90;;;12.14;100.00;102381.28;4204006;28;20029;-72
2024/01/26 05:29:41;;;;;;;4.90;1.92;;;12.60;99.90;;;12.19;100.00;102387.03;4229394;28;20402;-72
2024/01/26 05:31:42;;;;;;;6.80;2.30;;;12.60;99.90;;;12.18;100.00;102380.91;4203904;28;20025;-72
2024/01/26 05:33:43;;;;;;;6.25;2.17;;;12.70;99.90;;;12.20;100.00;102386.91;4203777;28;20108;-72
2024/01/26 05:35:45;;;;;;;6.72;2.33;;;12.70;99.90;;;12.20;100.00;102389.56;4203960;28;20033;-72
2024/01/26 05:37:46;;;;;;;7.72;3.00;;;12.70;99.90;;;12.21;100.00;102385.13;4203697;28;20031;-72
2024/01/26 05:39:46;;;;;;;4.00;2.20;;;12.70;99.90;;;12.28;100.00;102393.38;4224966;28;20021;-72
2024/01/26 05:41:47;;;;;;;3.88;2.50;;;12.70;99.90;;;12.24;100.00;102398.09;4203997;28;20023;-72
2024/01/26 05:43:48;;;;;;;5.15;2.10;;;12.70;99.90;;;12.25;100.00;102394.47;4219295;28;20418;-72
2024/01/26 05:45:49;;;;;;;4.75;2.53;;;12.70;99.90;;;12.25;100.00;102397.09;4212747;28;20475;-72
2024/01/26 05:47:51;;;;;;;7.63;2.53;;;12.70;99.90;;;12.25;100.00;102398.91;4203770;28;20025;-72
2024/01/26 05:49:52;;;;;;;7.22;3.17;;;12.70;99.90;;;12.23;100.00;102403.50;4226525;28;20024;-72
2024/01/26 05:51:53;;;;;;;5.38;2.35;;;12.70;99.90;;;12.21;100.00;102404.47;4203620;28;20074;-72
2024/01/26 05:53:54;;;;;;;5.88;2.40;;;12.70;99.90;;;12.17;100.00;102410.97;4205186;28;20020;-72
2024/01/26 05:55:55;;;;;;;6.10;2.30;;;12.70;99.90;;;12.19;100.00;102409.03;4220129;28;20039;-72
2024/01/26 05:57:56;;;;;;;6.95;2.63;;;12.70;99.90;;;12.20;100.00;102416.03;4220173;28;20396;-71
2024/01/26 05:59:57;;;;;;;5.15;2.50;;;12.70;99.90;;;12.15;100.00;102418.22;4216115;28;20032;-71
2024/01/26 06:01:58;;;;;;;6.38;2.38;;;12.70;99.90;;;12.15;100.00;102406.78;4203374;28;20430;-71
2024/01/26 06:03:58;;;;;;;7.35;1.95;;;12.70;99.90;;;12.16;100.00;102426.97;4218031;28;20027;-71
2024/01/26 06:05:59;;;;;;;5.05;2.15;;;12.70;99.90;;;12.13;100.00;102422.78;4203391;28;20021;-71
2024/01/26 06:08:00;;;;;;;6.85;2.28;;;12.70;99.90;;;12.12;100.00;102423.75;4219382;28;20549;-72
2024/01/26 06:10:01;;;;;;;6.93;2.63;;;12.60;99.90;;;12.10;100.00;102430.13;4209105;28;20020;-71
2024/01/26 06:12:02;;;;;;;8.00;2.30;;;12.60;99.90;;;12.10;100.00;102438.88;4203107;28;20040;-71
2024/01/26 06:14:03;;;;;;;8.30;2.95;;;12.60;99.90;;;12.07;100.00;102441.78;4203281;28;20054;-71
2024/01/26 06:16:04;;;;;;;7.85;2.92;;;12.60;99.90;;;12.04;100.00;102436.75;4203121;28;20036;-72
2024/01/26 06:18:05;;;;;;;7.57;3.03;;;12.60;99.90;;;12.05;100.00;102445.53;4203031;28;20028;-71
2024/01/26 06:20:07;;;;;;;7.95;2.80;;;12.60;99.90;;;12.03;100.00;102444.81;4202866;28;20025;-71
2024/01/26 06:22:07;;;;;;;7.32;3.10;;;12.60;99.90;;;12.03;100.00;102445.66;4218850;28;20391;-71
2024/01/26 06:24:08;;;;;;;9.27;2.97;;;12.50;99.90;;;12.02;100.00;102453.72;4201949;28;20025;-72
2024/01/26 06:26:09;;;;;;;10.23;3.40;;;12.60;99.90;;;12.04;100.00;102452.63;4202940;28;20020;-71
2024/01/26 06:28:10;;;;;;;7.97;3.20;;;12.60;99.90;;;12.04;100.00;102449.97;4202909;28;20030;-71
2024/01/26 06:30:12;;;;;;;6.20;3.22;;;12.60;99.90;;;12.05;100.00;102451.66;4226416;28;20017;-72
2024/01/26 06:32:13;;;;;;;7.78;3.47;;;12.50;99.90;;;11.99;100.00;102454.78;4201532;28;20043;-72
2024/01/26 06:34:13;;;;;;;5.75;2.30;;;12.60;99.90;;;12.01;100.00;102452.84;4218294;28;20032;-72
2024/01/26 06:36:14;;;;;;;8.63;2.83;;;12.50;99.90;;;12.03;100.00;102465.97;4202678;28;20025;-72
2024/01/26 06:38:15;;;;;;;7.43;2.80;;;12.50;99.90;;;12.02;100.00;102470.41;4206829;28;20032;-72
2024/01/26 06:40:16;;;;;;;4.00;2.58;;;12.60;99.90;;;12.01;100.00;102468.72;4210999;28;20661;-72
2024/01/26 06:42:25;;;;;;;5.05;2.40;;;12.60;99.90;;;12.01;100.00;102474.03;4202687;28;20052;-72
2024/01/26 06:44:26;;;;;;;9.98;3.38;;;12.50;99.90;;;12.04;100.00;102472.94;4202532;28;20426;-72
2024/01/26 06:46:26;;;;;;;6.78;2.40;;;12.60;99.90;;;12.03;100.00;102466.81;4211961;28;20044;-71
2024/01/26 06:48:28;;;;;;;6.93;2.63;;;12.50;99.90;;;12.02;100.00;102467.78;4205862;28;20028;-71
2024/01/26 06:50:28;;;;;;;9.30;3.05;;;12.60;99.90;;;12.01;100.00;102479.31;4213027;28;20063;-72
2024/01/26 06:52:29;;;;;;;9.13;2.63;;;12.50;99.90;;;12.02;100.00;102481.00;4202374;28;20480;-72
2024/01/26 06:54:30;;;;;;;6.97;2.53;;;12.50;99.90;;;11.98;100.00;102484.00;4202449;28;20111;-72
2024/01/26 06:56:31;;;;;;;9.30;2.95;;;12.60;99.90;;;12.01;100.00;102492.53;4217970;28;20020;-72
2024/01/26 06:58:32;;;;;;;9.35;2.63;;;12.50;99.90;;;12.01;100.00;102489.88;4206774;28;20029;-72
2024/01/26 07:00:34;;;;;;;12.35;2.78;;;12.60;99.90;;;12.03;100.00;102501.22;4207931;28;20016;-72
2024/01/26 07:02:35;;;;;;;10.93;2.95;;;12.50;99.90;;;12.02;100.00;102499.50;4201177;28;20033;-72
2024/01/26 07:04:36;;;;;;;10.30;3.25;;;12.50;99.90;;;12.02;100.00;102499.50;4217906;28;20020;-72
2024/01/26 07:06:37;;;;;;;10.27;3.00;;;12.50;99.90;;;12.00;100.00;102498.81;4202291;28;20032;-72
2024/01/26 07:08:38;;;;;;;12.93;4.00;;;12.60;99.90;;;12.01;100.00;102505.75;4206618;28;20023;-72
2024/01/26 07:10:38;;;;;;;11.65;2.90;;;12.50;99.90;;;12.02;100.00;102503.97;4203496;28;20024;-71
2024/01/26 07:12:41;;;;;;;11.65;3.55;;;12.50;99.90;;;12.00;100.00;102500.59;4206545;28;20039;-72
2024/01/26 07:14:42;;;;;;;12.35;3.50;;;12.50;99.90;;;12.02;100.00;102512.75;4200295;28;20029;-71
2024/01/26 07:16:43;;;;;;;11.30;3.10;;;12.60;99.90;;;12.02;100.00;102517.19;4204684;28;20027;-71
2024/01/26 07:18:44;;;;;;;9.30;3.00;;;12.50;99.90;;;12.01;100.00;102516.34;4209569;28;20515;-72
2024/01/26 07:20:45;;;;;;;16.52;3.75;;;12.50;99.90;;;11.99;100.00;102514.78;4211787;28;20399;-71
2024/01/26 07:22:45;;;;;;;13.30;3.17;;;12.50;99.90;;;12.00;100.00;102514.69;4202289;28;20012;-72
2024/01/26 07:24:46;;;;;;;14.18;3.83;;;12.50;99.90;;;11.99;100.00;102528.84;4202011;28;20032;-72
2024/01/26 07:26:48;;;;;;;14.07;3.15;;;12.50;99.90;;;11.96;100.00;102523.81;4202279;28;20027;-72
2024/01/26 07:28:49;;;;;;;14.35;3.78;;;12.50;99.90;;;11.96;100.00;102536.19;4204739;28;20027;-72
2024/01/26 07:30:50;;;;;;;13.25;4.22;;;12.50;99.90;;;11.95;100.00;102537.13;4208550;28;20036;-72
2024/01/26 07:32:51;;;;;;;9.93;2.72;;;12.50;99.90;;;11.95;100.00;102543.28;4203990;28;20032;-72
2024/01/26 07:34:52;;;;;;;8.95;2.72;;;12.50;99.90;;;11.92;100.00;102540.03;4201971;28;20028;-71
2024/01/26 07:36:53;;;;;;;15.75;3.75;;;12.50;99.90;;;11.92;100.00;102543.50;4202001;28;20035;-72
2024/01/26 07:38:53;;;;;;;14.05;3.72;;;12.40;99.90;;;11.91;100.00;102541.00;4215816;28;20026;-72
2024/01/26 07:40:54;;;;;;;13.18;3.45;;;12.50;99.90;;;11.91;100.00;102560.38;4208486;28;20070;-72
2024/01/26 07:42:55;;;;;;;13.98;2.95;;;12.50;99.90;;;11.92;100.00;102554.09;4201920;28;20518;-72
2024/01/26 07:44:56;;;;;;;10.70;3.47;;;12.50;99.90;;;11.92;100.00;102547.97;4219621;28;20016;-71
2024/01/26 07:46:57;;;;;;;12.77;3.67;;;12.50;99.90;;;11.92;100.00;102563.81;4215579;28;20045;-72
2024/01/26 07:49:00;;;;;;;13.52;2.97;;;12.40;99.90;;;11.92;100.00;102571.75;4222209;28;20120;-71
2024/01/26 07:51:01;;;;;;;9.80;2.72;;;12.40;99.90;;;11.92;100.00;102571.75;4202340;28;20099;-71
2024/01/26 07:53:02;;;;;;;12.38;2.47;;;12.40;99.90;;;11.95;100.00;102575.00;4201855;28;20033;-71
2024/01/26 07:55:03;;;;;;;11.30;3.00;;;12.40;99.90;;;11.93;100.00;102578.75;4219747;28;20580;-72
2024/01/26 07:57:04;;;;;;;12.27;3.08;;;12.50;99.90;;;11.95;100.00;102584.75;4201767;28;20115;-71
2024/01/26 07:59:05;;;;;;;11.30;3.90;;;12.50;99.90;;;11.95;100.00;102584.75;4208222;28;20024;-72
2024/01/26 08:01:06;;;;;;;18.13;4.35;;;12.40;99.90;;;11.94;100.00;102591.84;4201795;28;20044;-71
2024/01/26 08:03:07;;;;;;;13.80;3.58;;;12.50;99.90;;;11.96;100.00;102602.31;4201912;28;20494;-72
2024/01/26 08:05:08;;;;;;;15.10;3.58;;;12.50;99.90;;;11.96;100.00;102600.50;4201495;28;20032;-71
2024/01/26 08:07:09;;;;;;;19.33;3.92;;;12.50;99.90;;;11.95;100.00;102598.81;4217127;28;20092;-72
2024/01/26 08:09:10;;;;;;;16.02;3.97;;;12.50;99.90;;;11.97;100.00;102614.56;4221042;28;20024;-71
2024/01/26 08:11:11;;;;;;;17.40;3.78;;;12.50;99.90;;;11.95;100.00;102621.75;4210181;28;20034;-71
2024/01/26 08:13:12;;;;;;;15.27;3.22;;;12.50;99.90;;;11.96;100.00;102629.59;4218361;28;20028;-71